SBI5226 UIII-UNNT
Flight info
| Callsign | SBI5226 |
|---|---|
| Flight time | 2h 22m |
| Altitude | 34000 |
| Route | BOGRA5D BOGRA A815 TUTEK M97 LIBZI R497 LONKA A822 LAPAK B151 KESED B926 NATIR NATIR1M |
| Aircraft | A321/M-SDE3FGHIRWY/LB1 |
Departure
| Time | 2026-05-08 12:58 |
|---|---|
| Airport | Irkutsk International Airport (UIII) |
Arrival
| Time | 2026-05-08 15:21 |
|---|---|
| Airport | Novosibirsk Tolmachevo Airport (UNNT) |
| Time | Latitude | Longitude | Altitude | Speed | Heading |
|---|---|---|---|---|---|
| 2026-05-08 12:17 | 52.27208 | 104.36387 | 1651 ft | 0 kts | 200° |
| 2026-05-08 12:46 | 52.27196 | 104.36379 | 1651 ft | 3 kts | 200° |
| 2026-05-08 12:46 | 52.27165 | 104.36383 | 1651 ft | 7 kts | 144° |
| 2026-05-08 12:46 | 52.27142 | 104.36457 | 1651 ft | 7 kts | 110° |
| 2026-05-08 12:47 | 52.27124 | 104.36533 | 1651 ft | 9 kts | 110° |
| 2026-05-08 12:47 | 52.27098 | 104.36646 | 1651 ft | 12 kts | 110° |
| 2026-05-08 12:47 | 52.27071 | 104.36764 | 1651 ft | 10 kts | 110° |
| 2026-05-08 12:47 | 52.27048 | 104.36865 | 1651 ft | 9 kts | 110° |
| 2026-05-08 12:48 | 52.27027 | 104.36960 | 1651 ft | 9 kts | 110° |
| 2026-05-08 12:48 | 52.27006 | 104.37056 | 1651 ft | 9 kts | 110° |
| 2026-05-08 12:48 | 52.26985 | 104.37151 | 1651 ft | 9 kts | 102° |
| 2026-05-08 12:48 | 52.27001 | 104.37255 | 1651 ft | 12 kts | 88° |
| 2026-05-08 12:49 | 52.26971 | 104.37396 | 1651 ft | 13 kts | 113° |
| 2026-05-08 12:49 | 52.26938 | 104.37522 | 1651 ft | 11 kts | 113° |
| 2026-05-08 12:49 | 52.26909 | 104.37633 | 1651 ft | 10 kts | 113° |
| 2026-05-08 12:49 | 52.26882 | 104.37732 | 1651 ft | 10 kts | 114° |
| 2026-05-08 12:50 | 52.26853 | 104.37835 | 1651 ft | 10 kts | 114° |
| 2026-05-08 12:50 | 52.26825 | 104.37944 | 1651 ft | 11 kts | 112° |
| 2026-05-08 12:50 | 52.26795 | 104.38059 | 1651 ft | 11 kts | 113° |
| 2026-05-08 12:50 | 52.26763 | 104.38180 | 1651 ft | 12 kts | 113° |
| 2026-05-08 12:51 | 52.26730 | 104.38305 | 1651 ft | 12 kts | 113° |
| 2026-05-08 12:51 | 52.26658 | 104.38575 | 1651 ft | 13 kts | 113° |
| 2026-05-08 12:51 | 52.26621 | 104.38719 | 1651 ft | 14 kts | 113° |
| 2026-05-08 12:52 | 52.26581 | 104.38869 | 1651 ft | 15 kts | 113° |
| 2026-05-08 12:52 | 52.26493 | 104.39186 | 1651 ft | 16 kts | 115° |
| 2026-05-08 12:52 | 52.26445 | 104.39354 | 1651 ft | 17 kts | 115° |
| 2026-05-08 12:53 | 52.26395 | 104.39528 | 1651 ft | 17 kts | 115° |
| 2026-05-08 12:53 | 52.26345 | 104.39710 | 1651 ft | 18 kts | 112° |
| 2026-05-08 12:53 | 52.26301 | 104.39886 | 1651 ft | 16 kts | 112° |
| 2026-05-08 12:53 | 52.26261 | 104.40047 | 1651 ft | 14 kts | 112° |
| 2026-05-08 12:54 | 52.26225 | 104.40191 | 1651 ft | 13 kts | 112° |
| 2026-05-08 12:54 | 52.26189 | 104.40337 | 1651 ft | 16 kts | 112° |
| 2026-05-08 12:54 | 52.26144 | 104.40518 | 1651 ft | 19 kts | 113° |
| 2026-05-08 12:54 | 52.26091 | 104.40710 | 1651 ft | 18 kts | 114° |
| 2026-05-08 12:55 | 52.26043 | 104.40885 | 1651 ft | 16 kts | 114° |
| 2026-05-08 12:55 | 52.26003 | 104.41031 | 1651 ft | 11 kts | 112° |
| 2026-05-08 12:55 | 52.25995 | 104.41140 | 1651 ft | 9 kts | 69° |
| 2026-05-08 12:55 | 52.26036 | 104.41194 | 1651 ft | 7 kts | 21° |
| 2026-05-08 12:56 | 52.26076 | 104.41214 | 1651 ft | 5 kts | 18° |
| 2026-05-08 12:56 | 52.26119 | 104.41244 | 1651 ft | 10 kts | 23° |
| 2026-05-08 12:56 | 52.26193 | 104.41295 | 1652 ft | 8 kts | 23° |
| 2026-05-08 12:56 | 52.26233 | 104.41269 | 1651 ft | 7 kts | 306° |
| 2026-05-08 12:57 | 52.26253 | 104.41201 | 1651 ft | 7 kts | 294° |
| 2026-05-08 12:57 | 52.26289 | 104.41064 | 1651 ft | 23 kts | 293° |
| 2026-05-08 12:57 | 52.26414 | 104.40595 | 1654 ft | 77 kts | 293° |
| 2026-05-08 12:57 | 52.26709 | 104.39485 | 1650 ft | 134 kts | 293° |
| 2026-05-08 12:58 | 52.27135 | 104.37877 | 1659 ft | 176 kts | 294° |
| 2026-05-08 12:58 | 52.27632 | 104.36010 | 2164 ft | 177 kts | 294° |
| 2026-05-08 12:58 | 52.28120 | 104.34168 | 2829 ft | 177 kts | 294° |
| 2026-05-08 12:58 | 52.28626 | 104.32304 | 3153 ft | 187 kts | 294° |
| 2026-05-08 12:59 | 52.29169 | 104.30278 | 3295 ft | 203 kts | 294° |
| 2026-05-08 12:59 | 52.30009 | 104.28362 | 3415 ft | 218 kts | 323° |
| 2026-05-08 12:59 | 52.31390 | 104.27259 | 3643 ft | 225 kts | 339° |
| 2026-05-08 12:59 | 52.32892 | 104.26498 | 3974 ft | 226 kts | 343° |
| 2026-05-08 13:00 | 52.34406 | 104.25801 | 4320 ft | 227 kts | 343° |
| 2026-05-08 13:00 | 52.35923 | 104.25071 | 4614 ft | 232 kts | 342° |
| 2026-05-08 13:00 | 52.37535 | 104.24255 | 4715 ft | 255 kts | 341° |
| 2026-05-08 13:00 | 52.39260 | 104.23344 | 5254 ft | 264 kts | 340° |
| 2026-05-08 13:01 | 52.41005 | 104.22381 | 5976 ft | 266 kts | 339° |
| 2026-05-08 13:01 | 52.42757 | 104.21385 | 6714 ft | 268 kts | 339° |
| 2026-05-08 13:01 | 52.44518 | 104.20362 | 7092 ft | 267 kts | 339° |
| 2026-05-08 13:01 | 52.46263 | 104.19340 | 7466 ft | 266 kts | 339° |
| 2026-05-08 13:02 | 52.48008 | 104.18316 | 7819 ft | 267 kts | 339° |
| 2026-05-08 13:02 | 52.49764 | 104.17286 | 8196 ft | 269 kts | 339° |
| 2026-05-08 13:02 | 52.51526 | 104.16251 | 8943 ft | 269 kts | 339° |
| 2026-05-08 13:02 | 52.53292 | 104.15207 | 9658 ft | 270 kts | 339° |
| 2026-05-08 13:03 | 52.54468 | 104.14514 | 10094 ft | 272 kts | 339° |
| 2026-05-08 13:03 | 52.56310 | 104.13427 | 10289 ft | 292 kts | 339° |
| 2026-05-08 13:03 | 52.58287 | 104.12257 | 10426 ft | 312 kts | 339° |
| 2026-05-08 13:03 | 52.60402 | 104.11013 | 10550 ft | 332 kts | 339° |
| 2026-05-08 13:04 | 52.62622 | 104.09708 | 10881 ft | 343 kts | 340° |
| 2026-05-08 13:04 | 52.64885 | 104.08371 | 11444 ft | 347 kts | 340° |
| 2026-05-08 13:04 | 52.67168 | 104.07017 | 12052 ft | 350 kts | 340° |
| 2026-05-08 13:04 | 52.69468 | 104.05657 | 12642 ft | 352 kts | 340° |
| 2026-05-08 13:05 | 52.71788 | 104.04282 | 13194 ft | 356 kts | 340° |
| 2026-05-08 13:05 | 52.74127 | 104.02892 | 13747 ft | 359 kts | 340° |
| 2026-05-08 13:05 | 52.76495 | 104.01492 | 14290 ft | 362 kts | 340° |
| 2026-05-08 13:05 | 52.78875 | 104.00079 | 14807 ft | 365 kts | 340° |
| 2026-05-08 13:06 | 52.81270 | 103.98647 | 15334 ft | 368 kts | 340° |
| 2026-05-08 13:06 | 52.83680 | 103.97205 | 15881 ft | 369 kts | 340° |
| 2026-05-08 13:06 | 52.86104 | 103.95756 | 16377 ft | 372 kts | 340° |
| 2026-05-08 13:06 | 52.88545 | 103.94299 | 16851 ft | 374 kts | 340° |
| 2026-05-08 13:07 | 52.90971 | 103.92848 | 17310 ft | 377 kts | 340° |
| 2026-05-08 13:07 | 52.93447 | 103.91369 | 17756 ft | 380 kts | 340° |
| 2026-05-08 13:07 | 52.95939 | 103.89881 | 18185 ft | 382 kts | 340° |
| 2026-05-08 13:07 | 52.98453 | 103.88369 | 18619 ft | 385 kts | 340° |
| 2026-05-08 13:08 | 53.00977 | 103.86845 | 19050 ft | 388 kts | 339° |
| 2026-05-08 13:08 | 53.03518 | 103.85307 | 19453 ft | 390 kts | 340° |
| 2026-05-08 13:08 | 53.06086 | 103.83760 | 19849 ft | 393 kts | 340° |
| 2026-05-08 13:08 | 53.08666 | 103.82204 | 20220 ft | 396 kts | 340° |
| 2026-05-08 13:09 | 53.11263 | 103.80631 | 20604 ft | 399 kts | 340° |
| 2026-05-08 13:09 | 53.13852 | 103.79065 | 20991 ft | 401 kts | 340° |
| 2026-05-08 13:09 | 53.16439 | 103.77271 | 21366 ft | 403 kts | 335° |
| 2026-05-08 13:09 | 53.18990 | 103.75279 | 21722 ft | 406 kts | 335° |
| 2026-05-08 13:10 | 53.21556 | 103.73269 | 22089 ft | 409 kts | 335° |
| 2026-05-08 13:10 | 53.24140 | 103.71243 | 22453 ft | 411 kts | 335° |
| 2026-05-08 13:10 | 53.26736 | 103.69209 | 22816 ft | 414 kts | 335° |
| 2026-05-08 13:10 | 53.29350 | 103.67162 | 23164 ft | 416 kts | 335° |
| 2026-05-08 13:11 | 53.31985 | 103.65095 | 23514 ft | 418 kts | 335° |
| 2026-05-08 13:11 | 53.34620 | 103.63025 | 23853 ft | 420 kts | 335° |
| 2026-05-08 13:11 | 53.37274 | 103.60935 | 24186 ft | 422 kts | 335° |
| 2026-05-08 13:11 | 53.39938 | 103.58832 | 24514 ft | 424 kts | 335° |
| 2026-05-08 13:12 | 53.42614 | 103.56715 | 24829 ft | 426 kts | 335° |
| 2026-05-08 13:12 | 53.45273 | 103.54487 | 25128 ft | 428 kts | 329° |
| 2026-05-08 13:12 | 53.47689 | 103.51540 | 25434 ft | 431 kts | 319° |
| 2026-05-08 13:12 | 53.49737 | 103.47860 | 25723 ft | 434 kts | 308° |
| 2026-05-08 13:13 | 53.51343 | 103.43545 | 25999 ft | 438 kts | 297° |
| 2026-05-08 13:13 | 53.52435 | 103.38743 | 26269 ft | 443 kts | 287° |
| 2026-05-08 13:13 | 53.53124 | 103.33744 | 26536 ft | 445 kts | 285° |
| 2026-05-08 13:13 | 53.53807 | 103.28657 | 26822 ft | 447 kts | 285° |
| 2026-05-08 13:14 | 53.54493 | 103.23555 | 27094 ft | 449 kts | 285° |
| 2026-05-08 13:14 | 53.55184 | 103.18420 | 27388 ft | 450 kts | 285° |
| 2026-05-08 13:14 | 53.55872 | 103.13280 | 27662 ft | 451 kts | 285° |
| 2026-05-08 13:14 | 53.56560 | 103.08121 | 27927 ft | 453 kts | 285° |
| 2026-05-08 13:15 | 53.57243 | 103.02958 | 28263 ft | 451 kts | 285° |
| 2026-05-08 13:15 | 53.57922 | 102.97806 | 28610 ft | 451 kts | 285° |
| 2026-05-08 13:15 | 53.58599 | 102.92671 | 28948 ft | 449 kts | 285° |
| 2026-05-08 13:15 | 53.59272 | 102.87534 | 29268 ft | 449 kts | 285° |
| 2026-05-08 13:16 | 53.59941 | 102.82394 | 29582 ft | 448 kts | 285° |
| 2026-05-08 13:16 | 53.60605 | 102.77272 | 29896 ft | 447 kts | 285° |
| 2026-05-08 13:16 | 53.61269 | 102.72166 | 30198 ft | 446 kts | 285° |
| 2026-05-08 13:16 | 53.61935 | 102.67053 | 30492 ft | 446 kts | 285° |
| 2026-05-08 13:17 | 53.62595 | 102.61957 | 30816 ft | 445 kts | 285° |
| 2026-05-08 13:17 | 53.63246 | 102.56865 | 31119 ft | 444 kts | 285° |
| 2026-05-08 13:17 | 53.63892 | 102.51785 | 31417 ft | 443 kts | 285° |
| 2026-05-08 13:17 | 53.64534 | 102.46701 | 31708 ft | 443 kts | 285° |
| 2026-05-08 13:18 | 53.65173 | 102.41625 | 32003 ft | 442 kts | 285° |
| 2026-05-08 13:18 | 53.65809 | 102.36567 | 32291 ft | 442 kts | 285° |
| 2026-05-08 13:18 | 53.66450 | 102.31498 | 32586 ft | 441 kts | 285° |
| 2026-05-08 13:18 | 53.67078 | 102.26516 | 32875 ft | 440 kts | 285° |
| 2026-05-08 13:19 | 53.67708 | 102.21483 | 33152 ft | 439 kts | 285° |
| 2026-05-08 13:19 | 53.68334 | 102.16436 | 33430 ft | 438 kts | 284° |
| 2026-05-08 13:19 | 53.68956 | 102.11411 | 33703 ft | 437 kts | 284° |
| 2026-05-08 13:19 | 53.69577 | 102.06401 | 33890 ft | 437 kts | 284° |
| 2026-05-08 13:20 | 53.70811 | 101.96421 | 33924 ft | 433 kts | 284° |
| 2026-05-08 13:20 | 53.72021 | 101.86480 | 33926 ft | 432 kts | 284° |
| 2026-05-08 13:21 | 53.73224 | 101.76533 | 33924 ft | 432 kts | 284° |
| 2026-05-08 13:21 | 53.74408 | 101.66600 | 33924 ft | 431 kts | 284° |
| 2026-05-08 13:22 | 53.75590 | 101.56661 | 33923 ft | 431 kts | 284° |
| 2026-05-08 13:22 | 53.76759 | 101.46795 | 33921 ft | 430 kts | 284° |
| 2026-05-08 13:23 | 53.77923 | 101.36857 | 33925 ft | 431 kts | 284° |
| 2026-05-08 13:23 | 53.79086 | 101.26926 | 33927 ft | 430 kts | 284° |
| 2026-05-08 13:24 | 53.80231 | 101.16999 | 33925 ft | 430 kts | 284° |
| 2026-05-08 13:24 | 53.81362 | 101.07075 | 33924 ft | 429 kts | 284° |
| 2026-05-08 13:25 | 53.82494 | 100.97169 | 33928 ft | 428 kts | 284° |
| 2026-05-08 13:25 | 53.83616 | 100.87266 | 33926 ft | 428 kts | 284° |
| 2026-05-08 13:26 | 53.84734 | 100.77367 | 33927 ft | 427 kts | 284° |
| 2026-05-08 13:26 | 53.85831 | 100.67475 | 33925 ft | 427 kts | 283° |
| 2026-05-08 13:27 | 53.86911 | 100.57659 | 33921 ft | 426 kts | 283° |
| 2026-05-08 13:27 | 53.87985 | 100.47790 | 33920 ft | 425 kts | 283° |
| 2026-05-08 13:28 | 53.89059 | 100.37937 | 33916 ft | 425 kts | 283° |
| 2026-05-08 13:28 | 53.90126 | 100.28078 | 33913 ft | 425 kts | 283° |
| 2026-05-08 13:29 | 53.91178 | 100.18230 | 33910 ft | 424 kts | 283° |
| 2026-05-08 13:29 | 53.92221 | 100.08368 | 33906 ft | 424 kts | 283° |
| 2026-05-08 13:30 | 53.93255 | 99.98512 | 33904 ft | 424 kts | 283° |
| 2026-05-08 13:30 | 53.94288 | 99.88646 | 33905 ft | 424 kts | 283° |
| 2026-05-08 13:31 | 53.95308 | 99.78776 | 33902 ft | 424 kts | 283° |
| 2026-05-08 13:31 | 53.96321 | 99.68911 | 33903 ft | 424 kts | 283° |
| 2026-05-08 13:32 | 53.97324 | 99.59019 | 33907 ft | 424 kts | 283° |
| 2026-05-08 13:32 | 53.98314 | 99.49194 | 33904 ft | 424 kts | 283° |
| 2026-05-08 13:33 | 53.99300 | 99.39308 | 33908 ft | 424 kts | 282° |
| 2026-05-08 13:33 | 54.00274 | 99.29420 | 33908 ft | 424 kts | 282° |
| 2026-05-08 13:34 | 54.01249 | 99.19520 | 33906 ft | 424 kts | 282° |
| 2026-05-08 13:34 | 54.02211 | 99.09644 | 33907 ft | 424 kts | 282° |
| 2026-05-08 13:35 | 54.03167 | 98.99753 | 33911 ft | 424 kts | 282° |
| 2026-05-08 13:35 | 54.04105 | 98.89852 | 33910 ft | 423 kts | 282° |
| 2026-05-08 13:36 | 54.05910 | 98.80436 | 33903 ft | 418 kts | 299° |
| 2026-05-08 13:36 | 54.08802 | 98.71863 | 33904 ft | 418 kts | 301° |
| 2026-05-08 13:37 | 54.11667 | 98.63318 | 33904 ft | 418 kts | 301° |
| 2026-05-08 13:37 | 54.14556 | 98.54637 | 33906 ft | 418 kts | 301° |
| 2026-05-08 13:38 | 54.17418 | 98.45998 | 33908 ft | 418 kts | 300° |
| 2026-05-08 13:38 | 54.20262 | 98.37404 | 33906 ft | 418 kts | 300° |
| 2026-05-08 13:39 | 54.23126 | 98.28761 | 33906 ft | 418 kts | 300° |
| 2026-05-08 13:39 | 54.25988 | 98.20094 | 33907 ft | 418 kts | 300° |
| 2026-05-08 13:40 | 54.28829 | 98.11407 | 33907 ft | 419 kts | 300° |
| 2026-05-08 13:40 | 54.31668 | 98.02683 | 33907 ft | 419 kts | 300° |
| 2026-05-08 13:41 | 54.34503 | 97.93973 | 33913 ft | 419 kts | 300° |
| 2026-05-08 13:41 | 54.37347 | 97.85260 | 33914 ft | 418 kts | 300° |
| 2026-05-08 13:42 | 54.40189 | 97.76545 | 33910 ft | 418 kts | 300° |
| 2026-05-08 13:42 | 54.43018 | 97.67825 | 33910 ft | 418 kts | 300° |
| 2026-05-08 13:43 | 54.45833 | 97.59112 | 33910 ft | 417 kts | 300° |
| 2026-05-08 13:43 | 54.48641 | 97.50377 | 33911 ft | 417 kts | 300° |
| 2026-05-08 13:44 | 54.51437 | 97.41652 | 33908 ft | 416 kts | 300° |
| 2026-05-08 13:44 | 54.54224 | 97.32923 | 33913 ft | 416 kts | 300° |
| 2026-05-08 13:45 | 54.57004 | 97.24191 | 33913 ft | 415 kts | 299° |
| 2026-05-08 13:45 | 54.59772 | 97.15452 | 33912 ft | 415 kts | 299° |
| 2026-05-08 13:46 | 54.62512 | 97.06774 | 33911 ft | 414 kts | 299° |
| 2026-05-08 13:46 | 54.65262 | 96.98040 | 33907 ft | 414 kts | 299° |
| 2026-05-08 13:47 | 54.68006 | 96.89300 | 33909 ft | 414 kts | 299° |
| 2026-05-08 13:47 | 54.70757 | 96.80495 | 33908 ft | 413 kts | 299° |
| 2026-05-08 13:48 | 54.73460 | 96.71815 | 33912 ft | 412 kts | 299° |
| 2026-05-08 13:48 | 54.75557 | 96.62609 | 33904 ft | 414 kts | 283° |
| 2026-05-08 13:49 | 54.76719 | 96.52832 | 33905 ft | 414 kts | 284° |
| 2026-05-08 13:49 | 54.77704 | 96.44647 | 33907 ft | 414 kts | 284° |
| 2026-05-08 13:50 | 54.78868 | 96.34933 | 33906 ft | 414 kts | 283° |
| 2026-05-08 13:50 | 54.80031 | 96.25082 | 33904 ft | 415 kts | 283° |
| 2026-05-08 13:51 | 54.81168 | 96.15348 | 33912 ft | 414 kts | 283° |
| 2026-05-08 13:51 | 54.82304 | 96.05560 | 33909 ft | 414 kts | 283° |
| 2026-05-08 13:52 | 54.83431 | 95.95772 | 33909 ft | 413 kts | 283° |
| 2026-05-08 13:52 | 54.84553 | 95.86010 | 33913 ft | 412 kts | 283° |
| 2026-05-08 13:53 | 54.85669 | 95.76267 | 33908 ft | 411 kts | 283° |
| 2026-05-08 13:53 | 54.86771 | 95.66531 | 33906 ft | 410 kts | 283° |
| 2026-05-08 13:54 | 54.87862 | 95.56810 | 33903 ft | 410 kts | 283° |
| 2026-05-08 13:54 | 54.88937 | 95.47082 | 33902 ft | 410 kts | 282° |
| 2026-05-08 13:55 | 54.89999 | 95.37350 | 33902 ft | 410 kts | 282° |
| 2026-05-08 13:56 | 54.91589 | 95.22795 | 33903 ft | 410 kts | 282° |
| 2026-05-08 13:56 | 54.92645 | 95.13077 | 33912 ft | 408 kts | 282° |
| 2026-05-08 13:57 | 54.93683 | 95.03380 | 33916 ft | 407 kts | 282° |
| 2026-05-08 13:57 | 54.94714 | 94.93714 | 33915 ft | 406 kts | 282° |
| 2026-05-08 13:58 | 54.95738 | 94.84084 | 33914 ft | 405 kts | 282° |
| 2026-05-08 13:58 | 54.96747 | 94.74459 | 33912 ft | 404 kts | 282° |
| 2026-05-08 13:59 | 54.97743 | 94.64840 | 33907 ft | 404 kts | 281° |
| 2026-05-08 13:59 | 54.98731 | 94.55227 | 33901 ft | 403 kts | 281° |
| 2026-05-08 14:00 | 54.99709 | 94.45621 | 33900 ft | 403 kts | 281° |
| 2026-05-08 14:00 | 55.00681 | 94.36017 | 33897 ft | 402 kts | 281° |
| 2026-05-08 14:01 | 55.01650 | 94.26413 | 33885 ft | 403 kts | 281° |
| 2026-05-08 14:01 | 55.02613 | 94.16787 | 33884 ft | 402 kts | 281° |
| 2026-05-08 14:02 | 55.03567 | 94.07177 | 33883 ft | 402 kts | 281° |
| 2026-05-08 14:02 | 55.04510 | 93.97562 | 33882 ft | 402 kts | 281° |
| 2026-05-08 14:03 | 55.05433 | 93.87961 | 33893 ft | 401 kts | 280° |
| 2026-05-08 14:03 | 55.06355 | 93.78352 | 33887 ft | 401 kts | 280° |
| 2026-05-08 14:04 | 55.07269 | 93.68818 | 33887 ft | 401 kts | 280° |
| 2026-05-08 14:04 | 55.08161 | 93.59385 | 33885 ft | 380 kts | 280° |
| 2026-05-08 14:04 | 55.08579 | 93.54928 | 33884 ft | 365 kts | 280° |
| 2026-05-08 14:05 | 55.09101 | 93.50663 | 33877 ft | 356 kts | 292° |
| 2026-05-08 14:05 | 55.10353 | 93.46964 | 33889 ft | 357 kts | 310° |
| 2026-05-08 14:05 | 55.12276 | 93.44185 | 33889 ft | 364 kts | 327° |
| 2026-05-08 14:05 | 55.14669 | 93.42611 | 33885 ft | 375 kts | 345° |
| 2026-05-08 14:06 | 55.17312 | 93.42502 | 33885 ft | 389 kts | 4° |
| 2026-05-08 14:06 | 55.19910 | 93.44071 | 33885 ft | 406 kts | 26° |
| 2026-05-08 14:06 | 55.22084 | 93.47340 | 33876 ft | 422 kts | 49° |
| 2026-05-08 14:06 | 55.23444 | 93.51963 | 33873 ft | 436 kts | 73° |
| 2026-05-08 14:07 | 55.23748 | 93.57258 | 33872 ft | 442 kts | 95° |
| 2026-05-08 14:07 | 55.22695 | 93.67889 | 33859 ft | 443 kts | 103° |
| 2026-05-08 14:08 | 55.21209 | 93.78394 | 33855 ft | 445 kts | 103° |
| 2026-05-08 14:08 | 55.19290 | 93.88630 | 33840 ft | 441 kts | 127° |
| 2026-05-08 14:08 | 55.17218 | 93.92448 | 33851 ft | 429 kts | 151° |
| 2026-05-08 14:09 | 55.14553 | 93.94581 | 33889 ft | 418 kts | 175° |
| 2026-05-08 14:09 | 55.11722 | 93.94776 | 33886 ft | 401 kts | 199° |
| 2026-05-08 14:09 | 55.09222 | 93.93113 | 33890 ft | 384 kts | 221° |
| 2026-05-08 14:09 | 55.07302 | 93.90028 | 33894 ft | 371 kts | 239° |
| 2026-05-08 14:10 | 55.06058 | 93.86169 | 33889 ft | 362 kts | 255° |
| 2026-05-08 14:10 | 55.05539 | 93.81928 | 33884 ft | 356 kts | 271° |
| 2026-05-08 14:10 | 55.05771 | 93.77663 | 33891 ft | 354 kts | 283° |
| 2026-05-08 14:11 | 55.06796 | 93.69259 | 33886 ft | 355 kts | 283° |
| 2026-05-08 14:11 | 55.07823 | 93.60815 | 33877 ft | 356 kts | 283° |
| 2026-05-08 14:12 | 55.08854 | 93.52357 | 33874 ft | 356 kts | 286° |
| 2026-05-08 14:12 | 55.09837 | 93.48425 | 33865 ft | 355 kts | 304° |
| 2026-05-08 14:12 | 55.11519 | 93.45278 | 33863 ft | 358 kts | 321° |
| 2026-05-08 14:12 | 55.13746 | 93.43275 | 33861 ft | 366 kts | 340° |
| 2026-05-08 14:13 | 55.16296 | 93.42720 | 33858 ft | 378 kts | 359° |
| 2026-05-08 14:13 | 55.18898 | 93.43835 | 33887 ft | 396 kts | 20° |
| 2026-05-08 14:13 | 55.21184 | 93.46673 | 33879 ft | 414 kts | 44° |
| 2026-05-08 14:13 | 55.22738 | 93.50992 | 33877 ft | 428 kts | 67° |
| 2026-05-08 14:14 | 55.23273 | 93.56146 | 33877 ft | 437 kts | 91° |
| 2026-05-08 14:14 | 55.22342 | 93.66776 | 33878 ft | 444 kts | 102° |
| 2026-05-08 14:15 | 55.20405 | 93.77088 | 33907 ft | 451 kts | 107° |
| 2026-05-08 14:15 | 55.18525 | 93.87740 | 33886 ft | 464 kts | 107° |
| 2026-05-08 14:15 | 55.17261 | 93.92966 | 33885 ft | 470 kts | 123° |
| 2026-05-08 14:16 | 55.15230 | 93.97427 | 33892 ft | 471 kts | 140° |
| 2026-05-08 14:16 | 55.12571 | 94.00718 | 33887 ft | 469 kts | 158° |
| 2026-05-08 14:16 | 55.09510 | 94.02565 | 33885 ft | 464 kts | 175° |
| 2026-05-08 14:16 | 55.06354 | 94.02830 | 33884 ft | 458 kts | 192° |
| 2026-05-08 14:17 | 55.03295 | 94.01524 | 33895 ft | 449 kts | 209° |
| 2026-05-08 14:17 | 55.00656 | 93.98794 | 33885 ft | 437 kts | 226° |
| 2026-05-08 14:17 | 54.98662 | 93.94928 | 33885 ft | 424 kts | 243° |
| 2026-05-08 14:17 | 54.97475 | 93.90324 | 33891 ft | 414 kts | 258° |
| 2026-05-08 14:18 | 54.96926 | 93.85441 | 33873 ft | 408 kts | 271° |
| 2026-05-08 14:18 | 54.97185 | 93.80591 | 33891 ft | 401 kts | 286° |
| 2026-05-08 14:18 | 54.98218 | 93.76108 | 33882 ft | 400 kts | 301° |
| 2026-05-08 14:19 | 55.01622 | 93.68410 | 33882 ft | 402 kts | 307° |
| 2026-05-08 14:19 | 55.05122 | 93.60806 | 33880 ft | 402 kts | 307° |
| 2026-05-08 14:20 | 55.08223 | 93.52734 | 33873 ft | 401 kts | 294° |
| 2026-05-08 14:20 | 55.09666 | 93.43368 | 33871 ft | 402 kts | 280° |
| 2026-05-08 14:21 | 55.10547 | 93.33729 | 33872 ft | 402 kts | 280° |
| 2026-05-08 14:21 | 55.11433 | 93.24067 | 33874 ft | 403 kts | 280° |
| 2026-05-08 14:22 | 55.12319 | 93.14398 | 33879 ft | 403 kts | 280° |
| 2026-05-08 14:22 | 55.13195 | 93.04733 | 33878 ft | 403 kts | 280° |
| 2026-05-08 14:23 | 55.14057 | 92.95129 | 33883 ft | 402 kts | 280° |
| 2026-05-08 14:23 | 55.14911 | 92.85463 | 33889 ft | 402 kts | 279° |
| 2026-05-08 14:24 | 55.15753 | 92.75795 | 33888 ft | 402 kts | 279° |
| 2026-05-08 14:24 | 55.16587 | 92.66137 | 33885 ft | 402 kts | 279° |
| 2026-05-08 14:25 | 55.17417 | 92.56472 | 33885 ft | 402 kts | 279° |
| 2026-05-08 14:25 | 55.18243 | 92.46788 | 33880 ft | 402 kts | 279° |
| 2026-05-08 14:26 | 55.19066 | 92.37105 | 33880 ft | 402 kts | 279° |
| 2026-05-08 14:26 | 55.19883 | 92.27418 | 33881 ft | 402 kts | 279° |
| 2026-05-08 14:27 | 55.20688 | 92.17720 | 33881 ft | 402 kts | 279° |
| 2026-05-08 14:27 | 55.21478 | 92.08031 | 33880 ft | 402 kts | 279° |
| 2026-05-08 14:28 | 55.22264 | 91.98325 | 33882 ft | 403 kts | 279° |
| 2026-05-08 14:28 | 55.23050 | 91.88606 | 33879 ft | 402 kts | 278° |
| 2026-05-08 14:29 | 55.23828 | 91.78900 | 33883 ft | 403 kts | 278° |
| 2026-05-08 14:29 | 55.24596 | 91.69177 | 33888 ft | 403 kts | 278° |
| 2026-05-08 14:30 | 55.25353 | 91.59458 | 33891 ft | 402 kts | 278° |
| 2026-05-08 14:30 | 55.26103 | 91.49738 | 33893 ft | 402 kts | 278° |
| 2026-05-08 14:31 | 55.26847 | 91.40024 | 33893 ft | 402 kts | 278° |
| 2026-05-08 14:31 | 55.27584 | 91.30308 | 33893 ft | 402 kts | 278° |
| 2026-05-08 14:32 | 55.28670 | 91.15751 | 33900 ft | 402 kts | 278° |
| 2026-05-08 14:32 | 55.29376 | 91.06100 | 33908 ft | 402 kts | 278° |
| 2026-05-08 14:33 | 55.30080 | 90.96376 | 33912 ft | 401 kts | 278° |
| 2026-05-08 14:33 | 55.30780 | 90.86660 | 33910 ft | 401 kts | 277° |
| 2026-05-08 14:34 | 55.31478 | 90.76934 | 33906 ft | 401 kts | 277° |
| 2026-05-08 14:34 | 55.32166 | 90.67210 | 33906 ft | 402 kts | 277° |
| 2026-05-08 14:35 | 55.32848 | 90.57480 | 33909 ft | 401 kts | 277° |
| 2026-05-08 14:35 | 55.33409 | 90.49383 | 33906 ft | 402 kts | 277° |
| 2026-05-08 14:36 | 55.34074 | 90.39629 | 33905 ft | 402 kts | 277° |
| 2026-05-08 14:36 | 55.34734 | 90.29873 | 33906 ft | 402 kts | 277° |
| 2026-05-08 14:37 | 55.35381 | 90.20095 | 33904 ft | 403 kts | 277° |
| 2026-05-08 14:37 | 55.36017 | 90.10308 | 33906 ft | 403 kts | 277° |
| 2026-05-08 14:38 | 55.36652 | 90.00505 | 33906 ft | 404 kts | 277° |
| 2026-05-08 14:38 | 55.37278 | 89.90759 | 33907 ft | 404 kts | 277° |
| 2026-05-08 14:39 | 55.37900 | 89.80931 | 33912 ft | 405 kts | 277° |
| 2026-05-08 14:39 | 55.38511 | 89.71087 | 33915 ft | 405 kts | 276° |
| 2026-05-08 14:40 | 55.39106 | 89.61237 | 33921 ft | 405 kts | 276° |
| 2026-05-08 14:40 | 55.39699 | 89.51396 | 33926 ft | 405 kts | 276° |
| 2026-05-08 14:41 | 55.40295 | 89.41541 | 33933 ft | 405 kts | 276° |
| 2026-05-08 14:41 | 55.40883 | 89.31694 | 33942 ft | 405 kts | 276° |
| 2026-05-08 14:42 | 55.41452 | 89.21903 | 33947 ft | 405 kts | 276° |
| 2026-05-08 14:42 | 55.42014 | 89.12049 | 33953 ft | 405 kts | 276° |
| 2026-05-08 14:43 | 55.42564 | 89.02181 | 33950 ft | 405 kts | 276° |
| 2026-05-08 14:43 | 55.43108 | 88.92325 | 33950 ft | 405 kts | 274° |
| 2026-05-08 14:44 | 55.42850 | 88.82437 | 33948 ft | 405 kts | 266° |
| 2026-05-08 14:44 | 55.42381 | 88.72550 | 33945 ft | 406 kts | 266° |
| 2026-05-08 14:45 | 55.41908 | 88.62639 | 33952 ft | 406 kts | 266° |
| 2026-05-08 14:45 | 55.41428 | 88.52739 | 33959 ft | 406 kts | 266° |
| 2026-05-08 14:46 | 55.40929 | 88.42825 | 33956 ft | 406 kts | 266° |
| 2026-05-08 14:46 | 55.40422 | 88.32959 | 33958 ft | 408 kts | 266° |
| 2026-05-08 14:47 | 55.39912 | 88.23029 | 33962 ft | 408 kts | 266° |
| 2026-05-08 14:47 | 55.39395 | 88.13092 | 33956 ft | 408 kts | 266° |
| 2026-05-08 14:48 | 55.38869 | 88.03162 | 33954 ft | 407 kts | 266° |
| 2026-05-08 14:48 | 55.38332 | 87.93224 | 33958 ft | 408 kts | 266° |
| 2026-05-08 14:49 | 55.37783 | 87.83282 | 33949 ft | 409 kts | 265° |
| 2026-05-08 14:49 | 55.37222 | 87.73328 | 33950 ft | 409 kts | 265° |
| 2026-05-08 14:50 | 55.36658 | 87.63376 | 33951 ft | 409 kts | 265° |
| 2026-05-08 14:50 | 55.36088 | 87.53428 | 33950 ft | 409 kts | 265° |
| 2026-05-08 14:51 | 55.35512 | 87.43495 | 33949 ft | 408 kts | 265° |
| 2026-05-08 14:51 | 55.34934 | 87.33576 | 33949 ft | 408 kts | 265° |
| 2026-05-08 14:52 | 55.34050 | 87.18713 | 33959 ft | 408 kts | 265° |
| 2026-05-08 14:53 | 55.33452 | 87.08862 | 33949 ft | 408 kts | 265° |
| 2026-05-08 14:53 | 55.32846 | 86.98962 | 33950 ft | 407 kts | 265° |
| 2026-05-08 14:54 | 55.32231 | 86.89068 | 33946 ft | 407 kts | 265° |
| 2026-05-08 14:54 | 55.31607 | 86.79182 | 33950 ft | 407 kts | 265° |
| 2026-05-08 14:55 | 55.30971 | 86.69299 | 33942 ft | 407 kts | 265° |
| 2026-05-08 14:55 | 55.30331 | 86.59411 | 33952 ft | 407 kts | 265° |
| 2026-05-08 14:56 | 55.29687 | 86.49543 | 33953 ft | 407 kts | 265° |
| 2026-05-08 14:56 | 55.29033 | 86.39664 | 33955 ft | 407 kts | 264° |
| 2026-05-08 14:57 | 55.28363 | 86.29806 | 33955 ft | 407 kts | 264° |
| 2026-05-08 14:57 | 55.27682 | 86.19939 | 33812 ft | 408 kts | 264° |
| 2026-05-08 14:57 | 55.27340 | 86.15002 | 33560 ft | 407 kts | 264° |
| 2026-05-08 14:58 | 55.27004 | 86.10140 | 33313 ft | 408 kts | 265° |
| 2026-05-08 14:58 | 55.26706 | 86.05193 | 33063 ft | 408 kts | 266° |
| 2026-05-08 14:58 | 55.26462 | 86.00224 | 32813 ft | 409 kts | 267° |
| 2026-05-08 14:58 | 55.26249 | 85.95248 | 32563 ft | 410 kts | 267° |
| 2026-05-08 14:59 | 55.26042 | 85.90270 | 32312 ft | 411 kts | 267° |
| 2026-05-08 14:59 | 55.25599 | 85.80263 | 31813 ft | 412 kts | 266° |
| 2026-05-08 14:59 | 55.25357 | 85.75250 | 31564 ft | 413 kts | 266° |
| 2026-05-08 15:00 | 55.25103 | 85.70224 | 31311 ft | 414 kts | 266° |
| 2026-05-08 15:00 | 55.24844 | 85.65189 | 31068 ft | 415 kts | 266° |
| 2026-05-08 15:00 | 55.24585 | 85.60140 | 30815 ft | 416 kts | 266° |
| 2026-05-08 15:00 | 55.24324 | 85.55094 | 30561 ft | 416 kts | 266° |
| 2026-05-08 15:01 | 55.24063 | 85.50036 | 30311 ft | 417 kts | 266° |
| 2026-05-08 15:01 | 55.23802 | 85.44970 | 30061 ft | 418 kts | 266° |
| 2026-05-08 15:01 | 55.23539 | 85.39876 | 29245 ft | 422 kts | 266° |
| 2026-05-08 15:01 | 55.23270 | 85.34713 | 28147 ft | 429 kts | 266° |
| 2026-05-08 15:02 | 55.22992 | 85.29481 | 27282 ft | 432 kts | 266° |
| 2026-05-08 15:02 | 55.22712 | 85.24276 | 26683 ft | 427 kts | 266° |
| 2026-05-08 15:02 | 55.22431 | 85.19117 | 26012 ft | 424 kts | 266° |
| 2026-05-08 15:02 | 55.22150 | 85.13995 | 25361 ft | 420 kts | 266° |
| 2026-05-08 15:03 | 55.21870 | 85.08921 | 24721 ft | 417 kts | 265° |
| 2026-05-08 15:03 | 55.21590 | 85.03888 | 24152 ft | 412 kts | 265° |
| 2026-05-08 15:03 | 55.21311 | 84.98920 | 23942 ft | 410 kts | 265° |
| 2026-05-08 15:03 | 55.21030 | 84.93958 | 23948 ft | 410 kts | 265° |
| 2026-05-08 15:04 | 55.20748 | 84.88987 | 23955 ft | 411 kts | 265° |
| 2026-05-08 15:04 | 55.20462 | 84.84009 | 23952 ft | 410 kts | 265° |
| 2026-05-08 15:04 | 55.20172 | 84.79044 | 23960 ft | 410 kts | 265° |
| 2026-05-08 15:04 | 55.19881 | 84.74070 | 23972 ft | 410 kts | 265° |
| 2026-05-08 15:05 | 55.19491 | 84.69127 | 23969 ft | 411 kts | 259° |
| 2026-05-08 15:05 | 55.18715 | 84.64311 | 23972 ft | 412 kts | 255° |
| 2026-05-08 15:05 | 55.17888 | 84.59512 | 23971 ft | 412 kts | 255° |
| 2026-05-08 15:05 | 55.17061 | 84.54716 | 23971 ft | 412 kts | 255° |
| 2026-05-08 15:06 | 55.16234 | 84.49918 | 23972 ft | 412 kts | 255° |
| 2026-05-08 15:06 | 55.15405 | 84.45130 | 23971 ft | 412 kts | 255° |
| 2026-05-08 15:06 | 55.14573 | 84.40343 | 23954 ft | 412 kts | 255° |
| 2026-05-08 15:06 | 55.13736 | 84.35550 | 23954 ft | 412 kts | 255° |
| 2026-05-08 15:07 | 55.12898 | 84.30753 | 23165 ft | 411 kts | 255° |
| 2026-05-08 15:07 | 55.12063 | 84.25977 | 21472 ft | 411 kts | 255° |
| 2026-05-08 15:07 | 55.11229 | 84.21219 | 19941 ft | 407 kts | 255° |
| 2026-05-08 15:07 | 55.10405 | 84.16531 | 18496 ft | 401 kts | 255° |
| 2026-05-08 15:08 | 55.09587 | 84.11924 | 17081 ft | 394 kts | 255° |
| 2026-05-08 15:08 | 55.09052 | 84.08922 | 16134 ft | 390 kts | 255° |
| 2026-05-08 15:08 | 55.08052 | 84.02923 | 14275 ft | 379 kts | 261° |
| 2026-05-08 15:08 | 55.07721 | 83.98416 | 12899 ft | 372 kts | 265° |
| 2026-05-08 15:09 | 55.07459 | 83.93957 | 11591 ft | 366 kts | 265° |
| 2026-05-08 15:09 | 55.07200 | 83.89669 | 11100 ft | 341 kts | 265° |
| 2026-05-08 15:09 | 55.06949 | 83.85611 | 10803 ft | 332 kts | 264° |
| 2026-05-08 15:09 | 55.06701 | 83.81682 | 10666 ft | 319 kts | 264° |
| 2026-05-08 15:10 | 55.06463 | 83.77912 | 10547 ft | 307 kts | 265° |
| 2026-05-08 15:10 | 55.06234 | 83.74279 | 10423 ft | 295 kts | 265° |
| 2026-05-08 15:10 | 55.06012 | 83.70775 | 10223 ft | 287 kts | 265° |
| 2026-05-08 15:10 | 55.05795 | 83.67342 | 9968 ft | 283 kts | 264° |
| 2026-05-08 15:11 | 55.05577 | 83.63937 | 9805 ft | 282 kts | 264° |
| 2026-05-08 15:11 | 55.05359 | 83.60532 | 9682 ft | 283 kts | 264° |
| 2026-05-08 15:11 | 55.05142 | 83.57128 | 9554 ft | 282 kts | 265° |
| 2026-05-08 15:11 | 55.04922 | 83.53728 | 9271 ft | 281 kts | 264° |
| 2026-05-08 15:12 | 55.04704 | 83.50355 | 8890 ft | 280 kts | 264° |
| 2026-05-08 15:12 | 55.04484 | 83.46990 | 8518 ft | 279 kts | 264° |
| 2026-05-08 15:12 | 55.04263 | 83.43644 | 8136 ft | 277 kts | 264° |
| 2026-05-08 15:12 | 55.04043 | 83.40312 | 7756 ft | 276 kts | 264° |
| 2026-05-08 15:13 | 55.03823 | 83.36997 | 7379 ft | 275 kts | 264° |
| 2026-05-08 15:13 | 55.03438 | 83.33747 | 7017 ft | 273 kts | 250° |
| 2026-05-08 15:13 | 55.02562 | 83.30824 | 6886 ft | 275 kts | 236° |
| 2026-05-08 15:13 | 55.01418 | 83.28152 | 6567 ft | 274 kts | 234° |
| 2026-05-08 15:14 | 55.00267 | 83.25511 | 6371 ft | 274 kts | 234° |
| 2026-05-08 15:14 | 54.99116 | 83.22874 | 6154 ft | 273 kts | 234° |
| 2026-05-08 15:14 | 54.97964 | 83.20252 | 5935 ft | 272 kts | 233° |
| 2026-05-08 15:14 | 54.96896 | 83.17535 | 5441 ft | 275 kts | 247° |
| 2026-05-08 15:15 | 54.96492 | 83.14312 | 5002 ft | 272 kts | 271° |
| 2026-05-08 15:15 | 54.96795 | 83.11090 | 4582 ft | 271 kts | 284° |
| 2026-05-08 15:15 | 54.97236 | 83.07898 | 4146 ft | 271 kts | 284° |
| 2026-05-08 15:15 | 54.97677 | 83.04687 | 3613 ft | 274 kts | 285° |
| 2026-05-08 15:16 | 54.98107 | 83.01541 | 3361 ft | 259 kts | 285° |
| 2026-05-08 15:16 | 54.98512 | 82.98591 | 3230 ft | 242 kts | 287° |
| 2026-05-08 15:16 | 54.99169 | 82.96031 | 3153 ft | 228 kts | 306° |
| 2026-05-08 15:16 | 55.00155 | 82.93972 | 3041 ft | 216 kts | 314° |
| 2026-05-08 15:17 | 55.01107 | 82.92094 | 2943 ft | 197 kts | 314° |
| 2026-05-08 15:17 | 55.01977 | 82.90365 | 2842 ft | 182 kts | 314° |
| 2026-05-08 15:17 | 55.02737 | 82.88636 | 2676 ft | 181 kts | 299° |
| 2026-05-08 15:17 | 55.03087 | 82.86541 | 2480 ft | 182 kts | 274° |
| 2026-05-08 15:18 | 55.02974 | 82.84364 | 2262 ft | 180 kts | 261° |
| 2026-05-08 15:18 | 55.02784 | 82.82227 | 2035 ft | 175 kts | 260° |
| 2026-05-08 15:18 | 55.02600 | 82.80170 | 1827 ft | 168 kts | 259° |
| 2026-05-08 15:18 | 55.02453 | 82.78527 | 1623 ft | 158 kts | 259° |
| 2026-05-08 15:19 | 55.02371 | 82.77607 | 1515 ft | 154 kts | 259° |
| 2026-05-08 15:19 | 55.02213 | 82.75786 | 1317 ft | 150 kts | 259° |
| 2026-05-08 15:19 | 55.02055 | 82.74007 | 1113 ft | 148 kts | 259° |
| 2026-05-08 15:19 | 55.01895 | 82.72250 | 917 ft | 146 kts | 259° |
| 2026-05-08 15:20 | 55.01741 | 82.70503 | 722 ft | 145 kts | 259° |
| 2026-05-08 15:20 | 55.01579 | 82.68766 | 530 ft | 145 kts | 259° |
| 2026-05-08 15:20 | 55.01423 | 82.67033 | 378 ft | 141 kts | 261° |
| 2026-05-08 15:20 | 55.01289 | 82.65582 | 373 ft | 94 kts | 261° |
| 2026-05-08 15:21 | 55.01211 | 82.64759 | 373 ft | 44 kts | 260° |
| 2026-05-08 15:21 | 55.01166 | 82.64270 | 375 ft | 35 kts | 262° |
| 2026-05-08 15:21 | 55.01135 | 82.63999 | 375 ft | 12 kts | 228° |
| 2026-05-08 15:21 | 55.01060 | 82.63995 | 375 ft | 11 kts | 171° |
| 2026-05-08 15:22 | 55.01004 | 82.64016 | 374 ft | 5 kts | 149° |
| 2026-05-08 15:22 | 55.00995 | 82.64046 | 373 ft | 4 kts | 106° |
| 2026-05-08 15:22 | 55.00983 | 82.64143 | 373 ft | 10 kts | 102° |
| 2026-05-08 15:22 | 55.00971 | 82.64239 | 373 ft | 14 kts | 102° |
| 2026-05-08 15:23 | 55.00945 | 82.64438 | 373 ft | 11 kts | 102° |
| 2026-05-08 15:23 | 55.00929 | 82.64567 | 373 ft | 11 kts | 102° |
| 2026-05-08 15:23 | 55.00919 | 82.64649 | 373 ft | 10 kts | 103° |
| 2026-05-08 15:23 | 55.00900 | 82.64795 | 373 ft | 9 kts | 103° |
| 2026-05-08 15:24 | 55.00891 | 82.64862 | 373 ft | 8 kts | 103° |
| 2026-05-08 15:24 | 55.00879 | 82.64951 | 373 ft | 7 kts | 103° |
| 2026-05-08 15:24 | 55.00869 | 82.65029 | 373 ft | 6 kts | 97° |
| 2026-05-08 15:24 | 55.00873 | 82.65093 | 373 ft | 5 kts | 83° |
| 2026-05-08 15:25 | 55.00876 | 82.65143 | 373 ft | 4 kts | 83° |
| 2026-05-08 15:25 | 55.00879 | 82.65184 | 373 ft | 4 kts | 83° |
| 2026-05-08 15:25 | 55.00883 | 82.65230 | 373 ft | 4 kts | 83° |
| 2026-05-08 15:25 | 55.00886 | 82.65292 | 373 ft | 8 kts | 86° |
| 2026-05-08 15:26 | 55.00892 | 82.65403 | 373 ft | 9 kts | 83° |
| 2026-05-08 15:26 | 55.00902 | 82.65506 | 373 ft | 8 kts | 79° |
| 2026-05-08 15:26 | 55.00912 | 82.65596 | 373 ft | 7 kts | 79° |
| 2026-05-08 15:26 | 55.00919 | 82.65669 | 373 ft | 6 kts | 80° |
| 2026-05-08 15:27 | 55.00926 | 82.65734 | 373 ft | 5 kts | 82° |
| 2026-05-08 15:27 | 55.00932 | 82.65806 | 373 ft | 8 kts | 82° |
| 2026-05-08 15:27 | 55.00941 | 82.65908 | 373 ft | 8 kts | 73° |
| 2026-05-08 15:27 | 55.00975 | 82.65930 | 373 ft | 4 kts | 353° |
| 2026-05-08 15:28 | 55.00997 | 82.65923 | 373 ft | 0 kts | 349° |